createdAt,value
2022-11-21T00:01:53.517Z,99938.31
2022-11-21T00:04:23.592Z,99931.53
2022-11-21T00:06:53.693Z,99925.03
2022-11-21T00:09:23.768Z,99929.16
2022-11-21T00:11:53.782Z,99917.44
2022-11-21T00:14:23.890Z,99909.38
2022-11-21T00:16:57.350Z,99908.88
2022-11-21T00:19:27.708Z,99899.16
2022-11-21T00:21:57.759Z,99898.66
2022-11-21T00:24:28.052Z,99891.31
2022-11-21T00:26:58.303Z,99892.47
2022-11-21T00:29:31.174Z,99884.59
2022-11-21T00:32:01.491Z,99894.16
2022-11-21T00:34:31.537Z,99893.06
2022-11-21T00:37:01.563Z,99893.06
2022-11-21T00:39:31.714Z,99890.91
2022-11-21T00:42:01.755Z,99878.16
2022-11-21T00:44:31.822Z,99889.84
2022-11-21T00:47:01.925Z,99881.44
2022-11-21T00:49:32.047Z,99881.75
2022-11-21T00:52:02.428Z,99877.69
2022-11-21T00:54:32.477Z,99879.91
2022-11-21T00:57:02.711Z,99873.16
2022-11-21T00:59:32.839Z,99869.63
2022-11-21T01:02:02.947Z,99869.34
2022-11-21T01:04:35.710Z,99865.88
2022-11-21T01:07:05.763Z,99868.59
2022-11-21T01:09:35.935Z,99865.56
2022-11-21T01:12:07.136Z,99870.19
2022-11-21T01:14:37.319Z,99868.28
2022-11-21T01:17:07.421Z,99874.50
2022-11-21T01:19:37.477Z,99869.88
2022-11-21T01:22:07.560Z,99872.59
2022-11-21T01:24:37.814Z,99866.34
2022-11-21T01:27:07.858Z,99865.50
2022-11-21T01:29:37.858Z,99863.88
2022-11-21T01:32:08.277Z,99858.19
2022-11-21T01:34:38.323Z,99859.00
2022-11-21T01:37:08.456Z,99851.44
2022-11-21T01:39:38.546Z,99858.78
2022-11-21T01:42:14.648Z,99855.50
2022-11-21T01:44:54.507Z,99853.31
2022-11-21T01:47:24.620Z,99853.06
2022-11-21T01:49:54.675Z,99853.31
2022-11-21T01:52:34.132Z,99857.66
2022-11-21T01:55:14.934Z,99855.19
2022-11-21T01:57:49.779Z,99853.00
2022-11-21T02:00:31.947Z,99850.34
2022-11-21T02:03:14.040Z,99843.28
2022-11-21T02:05:44.356Z,99843.53
2022-11-21T02:08:21.376Z,99848.66
2022-11-21T02:11:45.178Z,99844.00
2022-11-21T02:14:16.118Z,99843.19
2022-11-21T02:16:47.304Z,99840.50
2022-11-21T02:20:10.570Z,99834.78
2022-11-21T02:23:39.455Z,99827.19
2022-11-21T02:26:11.443Z,99818.22
2022-11-21T02:28:43.018Z,99819.06
2022-11-21T02:31:13.041Z,99809.25
2022-11-21T02:33:43.317Z,99813.63
2022-11-21T02:36:47.560Z,99807.63
2022-11-21T02:39:33.290Z,99801.16
2022-11-21T02:42:17.062Z,99794.09
2022-11-21T02:45:23.775Z,99798.19
2022-11-21T02:48:02.275Z,99789.78
2022-11-21T02:50:39.935Z,99793.28
2022-11-21T02:53:18.280Z,99783.22
2022-11-21T02:55:48.409Z,99783.84
2022-11-21T02:58:15.909Z,99793.31
2022-11-21T03:00:44.180Z,99788.72
2022-11-21T03:03:16.984Z,99792.25
2022-11-21T03:05:47.026Z,99789.28
2022-11-21T03:08:17.126Z,99783.88
2022-11-21T03:10:46.812Z,99783.88
2022-11-21T03:13:16.564Z,99793.13
2022-11-21T03:15:46.354Z,99784.41
2022-11-21T03:18:16.133Z,99789.00
2022-11-21T03:20:45.846Z,99786.81
2022-11-21T03:23:15.566Z,99786.81
2022-11-21T03:25:45.374Z,99787.88
2022-11-21T03:28:15.119Z,99795.78
2022-11-21T03:30:45.022Z,99802.56
2022-11-21T03:33:14.681Z,99796.38
2022-11-21T03:35:44.439Z,99797.44
2022-11-21T03:38:17.651Z,99800.16
2022-11-21T03:40:47.034Z,99800.16
2022-11-21T03:43:16.863Z,99796.09
2022-11-21T03:45:51.000Z,99796.91
2022-11-21T03:48:18.077Z,99802.31
2022-11-21T03:50:47.786Z,99797.97
2022-11-21T03:53:17.521Z,99799.84
2022-11-21T03:55:47.288Z,99798.81
2022-11-21T03:58:16.989Z,99798.00
2022-11-21T04:00:48.404Z,99790.44
2022-11-21T04:03:18.120Z,99787.72
2022-11-21T04:05:46.673Z,99789.34
2022-11-21T04:08:17.505Z,99791.81
2022-11-21T04:10:53.025Z,99785.56
2022-11-21T04:13:22.289Z,99800.25
2022-11-21T04:15:52.261Z,99791.00
2022-11-21T04:18:20.320Z,99797.84
2022-11-21T04:20:48.853Z,99786.69
2022-11-21T04:23:17.206Z,99798.13
2022-11-21T04:25:45.499Z,99789.41
2022-11-21T04:28:15.105Z,99785.34
2022-11-21T04:30:42.545Z,99783.97
2022-11-21T04:33:14.931Z,99792.41
2022-11-21T04:35:45.375Z,99797.00
2022-11-21T04:38:15.626Z,99791.53
2022-11-21T04:40:45.643Z,99796.13
2022-11-21T04:43:15.781Z,99793.13
2022-11-21T04:45:45.834Z,99803.13
2022-11-21T04:48:15.381Z,99800.69
2022-11-21T04:50:46.808Z,99801.50
2022-11-21T04:53:16.530Z,99803.66
2022-11-21T04:55:46.269Z,99801.19
2022-11-21T04:58:15.990Z,99805.00
2022-11-21T05:00:45.736Z,99804.16
2022-11-21T05:03:15.918Z,99800.06
2022-11-21T05:05:46.495Z,99805.19
2022-11-21T05:08:15.758Z,99794.88
2022-11-21T05:11:07.069Z,99803.53
2022-11-21T05:13:37.095Z,99807.56
2022-11-21T05:16:07.391Z,99803.16
2022-11-21T05:18:37.445Z,99808.81
2022-11-21T05:21:07.490Z,99809.34
2022-11-21T05:23:37.562Z,99816.09
2022-11-21T05:26:07.578Z,99809.81
2022-11-21T05:28:37.656Z,99808.78
2022-11-21T05:31:07.667Z,99805.81
2022-11-21T05:33:37.683Z,99809.34
2022-11-21T05:36:07.819Z,99817.78
2022-11-21T05:38:37.827Z,99809.94
2022-11-21T05:41:07.849Z,99815.69
2022-11-21T05:43:46.937Z,99810.00
2022-11-21T05:46:23.856Z,99804.84
2022-11-21T05:48:54.777Z,99795.41
2022-11-21T05:51:23.532Z,99809.78
2022-11-21T05:53:53.303Z,99790.25
2022-11-21T05:56:23.319Z,99800.06
2022-11-21T05:58:57.155Z,99798.97
2022-11-21T06:01:45.268Z,99797.63
2022-11-21T06:04:15.120Z,99799.28
2022-11-21T06:06:45.876Z,99798.19
2022-11-21T06:09:14.657Z,99794.41
2022-11-21T06:11:44.445Z,99807.72
2022-11-21T06:14:14.030Z,99818.03
2022-11-21T06:16:43.984Z,99812.06
2022-11-21T06:19:13.598Z,99812.38
2022-11-21T06:21:43.445Z,99813.75
2022-11-21T06:24:16.010Z,99816.78
2022-11-21T06:26:46.132Z,99813.53
2022-11-21T06:29:16.922Z,99810.31
2022-11-21T06:31:45.885Z,99821.47
2022-11-21T06:34:14.516Z,99822.31
2022-11-21T06:36:44.787Z,99812.81
2022-11-21T06:39:14.806Z,99813.38
2022-11-21T06:41:51.120Z,99816.34
2022-11-21T06:44:21.427Z,99815.28
2022-11-21T06:46:51.510Z,99818.59
2022-11-21T06:49:22.340Z,99813.72
2022-11-21T06:51:49.752Z,99817.25
2022-11-21T06:54:18.216Z,99825.16
2022-11-21T06:56:46.631Z,99827.88
2022-11-21T06:59:15.032Z,99833.03
2022-11-21T07:01:43.513Z,99830.31
2022-11-21T07:04:12.687Z,99837.38
2022-11-21T07:06:40.432Z,99838.50
2022-11-21T07:09:32.217Z,99843.38
2022-11-21T07:12:19.111Z,99855.59
2022-11-21T07:14:49.276Z,99852.06
2022-11-21T07:17:19.376Z,99853.69
2022-11-21T07:19:49.433Z,99858.06
2022-11-21T07:22:19.504Z,99860.78
2022-11-21T07:24:49.610Z,99859.75
2022-11-21T07:27:19.670Z,99861.38
2022-11-21T07:29:49.837Z,99859.78
2022-11-21T07:32:19.982Z,99857.09
2022-11-21T07:34:50.032Z,99875.03
2022-11-21T07:37:20.471Z,99869.09
2022-11-21T07:39:50.538Z,99862.06
2022-11-21T07:42:20.799Z,99864.81
2022-11-21T07:44:50.844Z,99874.06
2022-11-21T07:47:20.845Z,99877.09
2022-11-21T07:49:50.910Z,99876.56
2022-11-21T07:52:21.043Z,99873.31
2022-11-21T07:54:51.301Z,99876.03
2022-11-21T07:57:21.380Z,99882.56
2022-11-21T07:59:51.504Z,99879.03
2022-11-21T08:02:27.107Z,99884.94
2022-11-21T08:04:57.113Z,99887.63
2022-11-21T08:07:27.285Z,99892.78
2022-11-21T08:09:57.495Z,99889.19
2022-11-21T08:12:27.610Z,99893.25
2022-11-21T08:14:58.187Z,99897.81
2022-11-21T08:17:28.384Z,99895.09
2022-11-21T08:20:00.345Z,99900.59
2022-11-21T08:22:30.445Z,99896.06
2022-11-21T08:25:00.472Z,99895.06
2022-11-21T08:27:30.562Z,99907.44
2022-11-21T08:30:00.608Z,99904.16
2022-11-21T08:32:31.324Z,99911.19
2022-11-21T08:35:02.025Z,99913.97
2022-11-21T08:37:33.301Z,99912.69
2022-11-21T08:40:03.695Z,99913.75
2022-11-21T08:42:38.075Z,99922.72
2022-11-21T08:45:09.151Z,99931.66
2022-11-21T08:47:39.183Z,99928.94
2022-11-21T08:50:09.634Z,99941.56
2022-11-21T08:52:39.678Z,99941.59
2022-11-21T08:55:09.809Z,99941.28
2022-11-21T08:57:41.612Z,99938.31
2022-11-21T09:00:13.830Z,99940.81
2022-11-21T09:02:43.938Z,99937.81
2022-11-21T09:05:14.098Z,99936.38
2022-11-21T09:07:44.347Z,99933.66
2022-11-21T09:10:15.220Z,99941.03
2022-11-21T09:12:43.529Z,99947.28
2022-11-21T09:15:30.643Z,99936.69
2022-11-21T09:18:06.667Z,99949.25
2022-11-21T09:20:44.991Z,99946.72
2022-11-21T09:23:17.454Z,99952.00
2022-11-21T09:25:47.028Z,99951.09
2022-11-21T09:28:15.775Z,99967.44
2022-11-21T09:30:44.298Z,99966.59
2022-11-21T09:33:17.067Z,99965.44
2022-11-21T09:35:48.060Z,99967.66
2022-11-21T09:38:22.555Z,99970.69
2022-11-21T09:41:40.424Z,99968.75
2022-11-21T09:44:37.475Z,99974.47
2022-11-21T09:47:40.875Z,99973.25
2022-11-21T09:50:12.839Z,99969.16
2022-11-21T09:53:11.518Z,99979.88
2022-11-21T09:56:06.393Z,99983.09
2022-11-21T09:58:51.296Z,99985.56
2022-11-21T10:01:21.487Z,99986.94
2022-11-21T10:03:52.757Z,99986.25
2022-11-21T10:06:33.913Z,99988.19
2022-11-21T10:09:51.656Z,99984.34
2022-11-21T10:13:17.409Z,99985.72
2022-11-21T10:17:08.613Z,99991.22
2022-11-21T10:20:40.180Z,99989.22
2022-11-21T10:23:24.734Z,99986.56
2022-11-21T10:26:42.167Z,99982.97
2022-11-21T10:29:11.998Z,99997.94
2022-11-21T10:31:43.992Z,99999.84
2022-11-21T10:34:38.479Z,100006.16
2022-11-21T10:37:39.840Z,100020.84
2022-11-21T10:40:45.946Z,100011.94
2022-11-21T10:43:57.993Z,100015.16
2022-11-21T10:46:28.036Z,100011.19
2022-11-21T10:49:08.589Z,100010.34
2022-11-21T10:52:12.850Z,100007.91
2022-11-21T10:55:04.662Z,100012.63
2022-11-21T10:57:52.759Z,100011.53
2022-11-21T11:00:28.083Z,100013.22
2022-11-21T11:03:07.277Z,100014.00
2022-11-21T11:05:39.170Z,100023.59
2022-11-21T11:08:15.315Z,100026.56
2022-11-21T11:11:08.240Z,100017.69
2022-11-21T11:14:02.007Z,100026.59
2022-11-21T11:16:41.439Z,100026.03
2022-11-21T11:19:14.647Z,100030.63
2022-11-21T11:21:47.044Z,100028.41
2022-11-21T11:24:17.534Z,100036.06
2022-11-21T11:26:48.640Z,100042.06
2022-11-21T11:29:25.925Z,100042.75
2022-11-21T11:31:59.775Z,100045.84
2022-11-21T11:35:03.151Z,100048.63
2022-11-21T11:37:42.967Z,100046.91
2022-11-21T11:40:44.085Z,100046.16
2022-11-21T11:44:12.017Z,100044.50
2022-11-21T11:47:18.548Z,100038.03
2022-11-21T11:50:17.029Z,100040.16
2022-11-21T11:53:01.572Z,100033.16
2022-11-21T11:56:05.306Z,100015.84
2022-11-21T11:59:13.085Z,100027.72
2022-11-21T12:02:03.040Z,100021.78
2022-11-21T12:05:15.247Z,100016.38
2022-11-21T12:11:59.631Z,100028.50
2022-11-21T12:16:01.732Z,100031.81
2022-11-21T12:19:07.989Z,100026.59
2022-11-21T12:21:38.142Z,100025.44
2022-11-21T12:24:12.307Z,100013.94
2022-11-21T12:27:16.623Z,100018.06
2022-11-21T12:30:54.037Z,100016.72
2022-11-21T12:33:24.928Z,100012.34
2022-11-21T12:36:49.524Z,100019.47
2022-11-21T12:39:53.436Z,100011.66
2022-11-21T12:43:07.068Z,100006.50
2022-11-21T12:46:02.530Z,100015.22
2022-11-21T12:50:06.241Z,100010.59
2022-11-21T12:53:49.695Z,100008.38
2022-11-21T12:56:56.557Z,100011.47
2022-11-21T12:59:30.820Z,100012.38
2022-11-21T13:02:34.205Z,99995.75
2022-11-21T13:05:24.846Z,100001.78
2022-11-21T13:08:24.750Z,100001.81
2022-11-21T13:12:00.209Z,99998.22
2022-11-21T13:15:19.389Z,99998.22
2022-11-21T13:18:24.370Z,99994.16
2022-11-21T13:20:54.514Z,99991.75
2022-11-21T13:23:43.015Z,99987.47
2022-11-21T13:26:24.812Z,99987.19
2022-11-21T13:29:16.543Z,99991.75
2022-11-21T13:31:44.038Z,99984.72
2022-11-21T13:34:46.677Z,99991.53
2022-11-21T13:38:02.924Z,99991.19
2022-11-21T13:41:00.865Z,99990.94
2022-11-21T13:43:34.184Z,99985.50
2022-11-21T13:46:05.028Z,99982.25
2022-11-21T13:49:20.967Z,99976.78
2022-11-21T13:51:55.869Z,99983.47
2022-11-21T13:54:40.660Z,99977.19
2022-11-21T13:58:07.757Z,99974.56
2022-11-21T14:00:56.297Z,99965.66
2022-11-21T14:04:17.005Z,99958.47
2022-11-21T14:06:45.807Z,99952.72
2022-11-21T14:09:48.191Z,99965.03
2022-11-21T14:12:44.523Z,99964.56
2022-11-21T14:15:47.182Z,99969.59
2022-11-21T14:18:26.790Z,99958.22
2022-11-21T14:21:04.704Z,99961.81
2022-11-21T14:23:43.123Z,99960.72
2022-11-21T14:26:21.433Z,99962.16
2022-11-21T14:28:52.740Z,99957.41
2022-11-21T14:31:22.829Z,99954.88
2022-11-21T14:33:58.439Z,99939.66
2022-11-21T14:36:31.674Z,99936.63
2022-11-21T14:42:16.345Z,99942.13
2022-11-21T14:44:46.432Z,99935.34
2022-11-21T14:47:26.571Z,99939.13
2022-11-21T14:50:02.294Z,99947.03
2022-11-21T14:52:34.562Z,99948.28
2022-11-21T14:55:31.736Z,99957.16
2022-11-21T14:58:06.329Z,99959.63
2022-11-21T15:01:03.539Z,99954.78
2022-11-21T15:03:24.390Z,99966.47
2022-11-21T15:06:07.316Z,99954.78
2022-11-21T15:12:03.608Z,99972.56
2022-11-21T15:15:00.697Z,99964.47
2022-11-21T15:17:32.314Z,99964.13
2022-11-21T15:20:22.466Z,99965.50
2022-11-21T15:22:58.986Z,99965.44
2022-11-21T15:25:47.453Z,99963.81
2022-11-21T15:28:19.108Z,99966.84
2022-11-21T15:30:46.359Z,99953.75
2022-11-21T15:33:19.159Z,99952.13
2022-11-21T15:35:57.866Z,99947.72
2022-11-21T15:38:47.161Z,99952.84
2022-11-21T15:41:16.755Z,99949.06
2022-11-21T15:43:55.213Z,99946.06
2022-11-21T15:46:33.012Z,99945.25
2022-11-21T15:49:31.537Z,99952.28
2022-11-21T15:52:07.117Z,99943.25
2022-11-21T15:54:39.032Z,99947.88
2022-11-21T15:57:10.221Z,99939.38
2022-11-21T15:59:40.264Z,99940.63
2022-11-21T16:02:14.660Z,99936.75
2022-11-21T16:04:44.167Z,99940.47
2022-11-21T16:07:14.030Z,99931.44
2022-11-21T16:09:45.984Z,99941.50
2022-11-21T16:12:18.780Z,99947.41
2022-11-21T16:14:48.857Z,99950.06
2022-11-21T16:17:19.001Z,99946.22
2022-11-21T16:19:49.570Z,99944.00
2022-11-21T16:22:28.321Z,99936.63
2022-11-21T16:24:58.371Z,99939.88
2022-11-21T16:27:28.498Z,99936.81
2022-11-21T16:29:58.509Z,99926.16
2022-11-21T16:32:28.776Z,99926.09
2022-11-21T16:34:59.262Z,99926.84
2022-11-21T16:37:32.756Z,99926.53
2022-11-21T16:40:00.749Z,99919.16
2022-11-21T16:42:28.465Z,99917.44
2022-11-21T16:44:55.953Z,99920.16
2022-11-21T16:47:24.447Z,99923.66
2022-11-21T16:49:52.995Z,99921.94
2022-11-21T16:52:22.497Z,99918.41
2022-11-21T16:54:50.829Z,99917.50
2022-11-21T16:57:19.193Z,99916.50
2022-11-21T16:59:47.804Z,99915.69
2022-11-21T17:02:16.179Z,99924.41
2022-11-21T17:04:44.573Z,99928.19
2022-11-21T17:07:13.115Z,99927.13
2022-11-21T17:09:41.414Z,99924.47
2022-11-21T17:12:16.660Z,99919.03
2022-11-21T17:14:45.404Z,99924.47
2022-11-21T17:17:14.281Z,99922.44
2022-11-21T17:19:44.568Z,99920.63
2022-11-21T17:22:14.355Z,99911.72
2022-11-21T17:24:42.097Z,99920.16
2022-11-21T17:27:11.765Z,99917.47
2022-11-21T17:29:41.608Z,99915.00
2022-11-21T17:32:11.318Z,99913.41
2022-11-21T17:34:41.522Z,99900.44
2022-11-21T17:37:11.131Z,99895.31
2022-11-21T17:39:41.369Z,99894.06
2022-11-21T17:42:12.528Z,99896.22
2022-11-21T17:44:42.219Z,99900.00
2022-11-21T17:47:11.982Z,99896.81
2022-11-21T17:49:41.845Z,99890.03
2022-11-21T17:52:11.828Z,99893.94
2022-11-21T17:54:39.376Z,99897.97
2022-11-21T17:57:07.456Z,99870.47
2022-11-21T17:59:38.890Z,99876.69
2022-11-21T18:02:09.213Z,99874.22
2022-11-21T18:04:39.176Z,99872.91
2022-11-21T18:07:09.133Z,99874.53
2022-11-21T18:09:38.863Z,99871.25
2022-11-21T18:12:12.996Z,99876.75
2022-11-21T18:14:43.868Z,99884.16
2022-11-21T18:17:12.794Z,99882.00
2022-11-21T18:19:42.639Z,99875.44
2022-11-21T18:22:10.334Z,99880.53
2022-11-21T18:24:40.164Z,99885.94
2022-11-21T18:27:10.063Z,99881.28
2022-11-21T18:29:39.867Z,99879.63
2022-11-21T18:32:09.622Z,99870.13
2022-11-21T18:34:39.334Z,99870.38
2022-11-21T18:37:09.132Z,99871.47
2022-11-21T18:39:39.017Z,99860.84
2022-11-21T18:42:13.669Z,99867.09
2022-11-21T18:44:43.174Z,99849.69
2022-11-21T18:47:20.067Z,99842.06
2022-11-21T18:49:48.889Z,99843.06
2022-11-21T18:52:17.101Z,99848.50
2022-11-21T18:54:47.033Z,99854.94
2022-11-21T18:57:17.175Z,99848.66
2022-11-21T18:59:47.118Z,99843.50
2022-11-21T19:02:17.283Z,99830.72
2022-11-21T19:04:47.087Z,99832.34
2022-11-21T19:07:16.889Z,99838.09
2022-11-21T19:09:46.704Z,99837.84
2022-11-21T19:12:17.722Z,99839.47
2022-11-21T19:14:50.254Z,99833.78
2022-11-21T19:17:18.655Z,99835.44
2022-11-21T19:19:48.581Z,99823.25
2022-11-21T19:22:18.770Z,99817.28
2022-11-21T19:24:48.620Z,99810.03
2022-11-21T19:27:24.341Z,99798.69
2022-11-21T19:29:55.345Z,99790.50
2022-11-21T19:32:25.357Z,99788.84
2022-11-21T19:34:55.202Z,99785.91
2022-11-21T19:37:25.100Z,99785.34
2022-11-21T19:39:54.804Z,99769.28
2022-11-21T19:42:25.104Z,99777.28
2022-11-21T19:44:54.953Z,99765.28
2022-11-21T19:47:26.826Z,99759.88
2022-11-21T19:49:56.862Z,99755.81
2022-11-21T19:52:28.226Z,99748.50
2022-11-21T19:54:58.383Z,99741.00
2022-11-21T19:57:29.231Z,99743.94
2022-11-21T19:59:59.260Z,99740.91
2022-11-21T20:02:30.682Z,99738.19
2022-11-21T20:05:01.078Z,99734.66
2022-11-21T20:07:34.332Z,99726.50
2022-11-21T20:10:10.100Z,99737.16
2022-11-21T20:12:39.659Z,99731.69
2022-11-21T20:15:10.301Z,99728.94
2022-11-21T20:17:37.904Z,99732.44
2022-11-21T20:20:07.949Z,99729.97
2022-11-21T20:22:39.562Z,99724.28
2022-11-21T20:25:08.278Z,99739.47
2022-11-21T20:27:36.265Z,99743.78
2022-11-21T20:30:05.763Z,99739.97
2022-11-21T20:32:35.988Z,99735.56
2022-11-21T20:35:06.075Z,99735.56
2022-11-21T20:37:35.274Z,99729.03
2022-11-21T20:40:06.077Z,99724.13
2022-11-21T20:42:35.061Z,99726.59
2022-11-21T20:47:53.918Z,99722.19
2022-11-21T20:51:01.401Z,99726.53
2022-11-21T20:56:07.494Z,99735.00
2022-11-21T20:58:43.488Z,99736.34
2022-11-21T21:01:19.242Z,99730.44
2022-11-21T21:03:48.321Z,99729.88
2022-11-21T21:06:17.689Z,99730.69
2022-11-21T21:08:48.261Z,99724.53
2022-11-21T21:14:13.024Z,99759.50
2022-11-21T21:16:43.933Z,99761.13
2022-11-21T21:19:12.596Z,99761.13
2022-11-21T21:21:42.336Z,99772.06
2022-11-21T21:24:13.939Z,99773.72
2022-11-21T21:26:48.191Z,99778.63
2022-11-21T21:29:21.483Z,99789.50
2022-11-21T21:31:52.588Z,99782.16
2022-11-21T21:34:23.861Z,99777.28
2022-11-21T21:36:53.421Z,99772.69
2022-11-21T21:39:21.779Z,99774.56
2022-11-21T21:41:50.287Z,99790.59
2022-11-21T21:44:19.845Z,99810.91
2022-11-21T21:46:47.307Z,99804.94
2022-11-21T21:49:16.043Z,99807.66
2022-11-21T21:51:44.158Z,99799.78
2022-11-21T21:54:21.926Z,99787.81
2022-11-21T21:56:50.928Z,99786.69
2022-11-21T21:59:21.534Z,99792.94
2022-11-21T22:01:51.740Z,99781.66
2022-11-21T22:04:21.425Z,99786.44
2022-11-21T22:06:51.193Z,99788.06
2022-11-21T22:09:21.799Z,99787.50
2022-11-21T22:11:51.238Z,99791.81
2022-11-21T22:14:21.126Z,99780.91
2022-11-21T22:16:52.100Z,99780.38
2022-11-21T22:19:21.950Z,99765.91
2022-11-21T22:21:51.993Z,99768.50
2022-11-21T22:24:26.646Z,99762.44
2022-11-21T22:26:55.213Z,99757.56
2022-11-21T22:29:22.719Z,99758.34
2022-11-21T22:31:52.713Z,99761.16
2022-11-21T22:34:22.812Z,99745.28
2022-11-21T22:36:51.950Z,99737.03
2022-11-21T22:39:20.234Z,99736.13
2022-11-21T22:41:48.810Z,99729.53
2022-11-21T22:44:17.420Z,99724.66
2022-11-21T22:46:46.700Z,99723.88
2022-11-21T22:49:15.151Z,99735.25
2022-11-21T22:51:45.057Z,99718.94
2022-11-21T22:54:13.023Z,99708.28
2022-11-21T22:56:41.091Z,99716.97
2022-11-21T22:59:13.962Z,99703.91
2022-11-21T23:01:41.989Z,99711.44
2022-11-21T23:04:14.694Z,99707.03
2022-11-21T23:06:47.585Z,99713.38
2022-11-21T23:09:17.381Z,99712.81
2022-11-21T23:11:47.261Z,99703.91
2022-11-21T23:14:18.013Z,99709.81
2022-11-21T23:16:46.831Z,99698.31
2022-11-21T23:19:16.832Z,99714.25
2022-11-21T23:21:49.050Z,99701.50
2022-11-21T23:24:16.536Z,99701.13
2022-11-21T23:26:45.934Z,99707.56
2022-11-21T23:29:15.628Z,99705.69
2022-11-21T23:31:45.382Z,99710.78
2022-11-21T23:34:15.164Z,99711.75
2022-11-21T23:36:43.705Z,99708.81
2022-11-21T23:39:11.669Z,99702.47
2022-11-21T23:41:40.969Z,99702.09
2022-11-21T23:44:10.749Z,99693.81
2022-11-21T23:46:40.569Z,99688.53
2022-11-21T23:49:10.648Z,99687.19
2022-11-21T23:51:40.229Z,99682.03
2022-11-21T23:54:09.961Z,99684.72
2022-11-21T23:56:39.581Z,99693.09
2022-11-21T23:59:09.223Z,99694.13
